createdAt,value
2022-09-23T00:01:11.396Z,100584.88
2022-09-23T00:03:42.041Z,100581.13
2022-09-23T00:06:18.379Z,100576.50
2022-09-23T00:08:45.364Z,100577.31
2022-09-23T00:11:15.960Z,100595.75
2022-09-23T00:13:46.794Z,100582.31
2022-09-23T00:16:18.099Z,100584.38
2022-09-23T00:18:45.350Z,100588.75
2022-09-23T00:21:14.615Z,100586.63
2022-09-23T00:23:43.693Z,100588.13
2022-09-23T00:26:15.872Z,100585.41
2022-09-23T00:28:43.518Z,100598.16
2022-09-23T00:31:17.930Z,100593.78
2022-09-23T00:33:45.137Z,100596.13
2022-09-23T00:36:16.552Z,100594.03
2022-09-23T00:38:44.806Z,100591.69
2022-09-23T00:41:12.235Z,100587.69
2022-09-23T00:43:44.033Z,100591.06
2022-09-23T00:46:37.211Z,100585.19
2022-09-23T00:49:11.876Z,100585.59
2022-09-23T00:51:50.661Z,100581.78
2022-09-23T00:54:19.056Z,100580.50
2022-09-23T00:56:45.989Z,100584.66
2022-09-23T00:59:14.131Z,100580.88
2022-09-23T01:01:41.179Z,100577.97
2022-09-23T01:04:08.586Z,100585.09
2022-09-23T01:06:35.644Z,100592.44
2022-09-23T01:09:02.756Z,100587.81
2022-09-23T01:11:51.814Z,100593.50
2022-09-23T01:14:43.184Z,100582.59
2022-09-23T01:17:37.236Z,100585.75
2022-09-23T01:20:31.884Z,100592.59
2022-09-23T01:23:01.540Z,100589.66
2022-09-23T01:25:44.821Z,100591.75
2022-09-23T01:28:57.492Z,100590.84
2022-09-23T01:32:47.572Z,100599.88
2022-09-23T01:35:23.908Z,100595.69
2022-09-23T01:38:16.464Z,100597.59
2022-09-23T01:40:59.977Z,100598.44
2022-09-23T01:43:47.960Z,100600.94
2022-09-23T01:46:29.215Z,100591.69
2022-09-23T01:49:09.005Z,100596.75
2022-09-23T01:51:46.316Z,100601.56
2022-09-23T01:54:24.588Z,100592.53
2022-09-23T01:57:04.321Z,100594.59
2022-09-23T01:59:39.682Z,100599.22
2022-09-23T02:02:23.220Z,100599.59
2022-09-23T02:05:04.588Z,100600.41
2022-09-23T02:07:59.507Z,100596.97
2022-09-23T02:10:36.210Z,100598.59
2022-09-23T02:13:10.278Z,100602.06
2022-09-23T02:15:49.904Z,100600.34
2022-09-23T02:18:23.245Z,100600.78
2022-09-23T02:20:59.121Z,100600.50
2022-09-23T02:23:44.491Z,100595.84
2022-09-23T02:26:21.853Z,100601.03
2022-09-23T02:29:25.326Z,100590.31
2022-09-23T02:32:15.099Z,100590.91
2022-09-23T02:35:08.194Z,100597.19
2022-09-23T02:37:53.944Z,100595.63
2022-09-23T02:40:28.840Z,100588.03
2022-09-23T02:43:19.952Z,100590.50
2022-09-23T02:45:47.681Z,100590.50
2022-09-23T02:48:22.373Z,100592.91
2022-09-23T02:50:49.524Z,100588.25
2022-09-23T02:53:16.405Z,100583.16
2022-09-23T02:55:43.663Z,100590.03
2022-09-23T02:58:13.521Z,100586.56
2022-09-23T03:01:24.700Z,100581.88
2022-09-23T03:04:14.894Z,100587.72
2022-09-23T03:07:02.236Z,100587.63
2022-09-23T03:09:56.146Z,100595.50
2022-09-23T03:12:36.408Z,100600.88
2022-09-23T03:15:51.569Z,100593.84
2022-09-23T03:18:40.525Z,100596.47
2022-09-23T03:21:16.190Z,100594.97
2022-09-23T03:23:44.945Z,100598.25
2022-09-23T03:26:20.799Z,100596.09
2022-09-23T03:28:48.764Z,100598.50
2022-09-23T03:31:16.593Z,100602.63
2022-09-23T03:33:59.333Z,100595.41
2022-09-23T03:36:51.674Z,100594.75
2022-09-23T03:39:27.874Z,100601.78
2022-09-23T03:41:59.716Z,100596.53
2022-09-23T03:44:29.171Z,100596.03
2022-09-23T03:47:02.453Z,100595.38
2022-09-23T03:49:36.313Z,100598.50
2022-09-23T03:52:03.864Z,100600.34
2022-09-23T03:54:31.053Z,100599.69
2022-09-23T03:56:58.820Z,100612.25
2022-09-23T03:59:27.253Z,100605.78
2022-09-23T04:01:55.729Z,100601.00
2022-09-23T04:04:22.653Z,100610.69
2022-09-23T04:06:49.447Z,100603.19
2022-09-23T04:09:16.403Z,100605.91
2022-09-23T04:11:43.265Z,100609.09
2022-09-23T04:14:10.567Z,100603.09
2022-09-23T04:16:37.406Z,100611.72
2022-09-23T04:19:05.107Z,100602.16
2022-09-23T04:21:32.761Z,100594.66
2022-09-23T04:23:59.538Z,100608.06
2022-09-23T04:26:26.296Z,100603.47
2022-09-23T04:28:55.101Z,100601.81
2022-09-23T04:31:23.985Z,100603.47
2022-09-23T04:33:53.213Z,100606.59
2022-09-23T04:36:20.341Z,100613.91
2022-09-23T04:38:48.874Z,100612.19
2022-09-23T04:41:17.202Z,100618.13
2022-09-23T04:43:44.249Z,100611.44
2022-09-23T04:46:14.003Z,100623.19
2022-09-23T04:48:42.082Z,100620.72
2022-09-23T04:51:13.796Z,100621.59
2022-09-23T04:53:43.901Z,100616.59
2022-09-23T04:56:14.868Z,100613.53
2022-09-23T04:58:42.454Z,100617.56
2022-09-23T05:01:19.454Z,100617.19
2022-09-23T05:03:47.191Z,100620.56
2022-09-23T05:06:15.237Z,100623.28
2022-09-23T05:08:47.908Z,100611.75
2022-09-23T05:11:14.772Z,100610.53
2022-09-23T05:13:41.589Z,100613.00
2022-09-23T05:16:12.623Z,100615.69
2022-09-23T05:18:42.933Z,100614.19
2022-09-23T05:21:11.591Z,100615.88
2022-09-23T05:23:39.923Z,100616.72
2022-09-23T05:26:12.591Z,100622.16
2022-09-23T05:28:39.873Z,100612.03
2022-09-23T05:31:20.376Z,100616.59
2022-09-23T05:33:57.604Z,100623.00
2022-09-23T05:36:26.258Z,100620.38
2022-09-23T05:38:53.520Z,100619.72
2022-09-23T05:41:23.283Z,100625.91
2022-09-23T05:43:51.954Z,100634.06
2022-09-23T05:46:22.616Z,100630.31
2022-09-23T05:48:50.082Z,100640.69
2022-09-23T05:51:28.750Z,100641.53
2022-09-23T05:53:58.487Z,100645.00
2022-09-23T05:56:27.981Z,100643.31
2022-09-23T05:58:57.295Z,100642.66
2022-09-23T06:01:28.420Z,100647.44
2022-09-23T06:03:57.349Z,100647.06
2022-09-23T06:06:37.448Z,100646.75
2022-09-23T06:09:05.746Z,100648.94
2022-09-23T06:11:35.151Z,100651.47
2022-09-23T06:14:02.719Z,100658.22
2022-09-23T06:16:34.019Z,100658.06
2022-09-23T06:19:06.535Z,100661.25
2022-09-23T06:21:37.970Z,100666.28
2022-09-23T06:24:07.005Z,100668.00
2022-09-23T06:26:35.331Z,100673.53
2022-09-23T06:29:03.799Z,100681.69
2022-09-23T06:31:30.956Z,100677.78
2022-09-23T06:34:07.810Z,100681.97
2022-09-23T06:36:43.317Z,100675.72
2022-09-23T06:39:10.446Z,100674.31
2022-09-23T06:41:37.254Z,100682.81
2022-09-23T06:44:04.190Z,100681.97
2022-09-23T06:46:31.998Z,100684.69
2022-09-23T06:48:59.432Z,100676.44
2022-09-23T06:51:26.262Z,100685.28
2022-09-23T06:53:53.082Z,100687.59
2022-09-23T06:56:22.176Z,100689.31
2022-09-23T06:58:51.966Z,100686.28
2022-09-23T07:01:20.011Z,100688.16
2022-09-23T07:03:48.506Z,100694.44
2022-09-23T07:06:17.033Z,100697.16
2022-09-23T07:08:47.243Z,100688.66
2022-09-23T07:11:15.840Z,100691.63
2022-09-23T07:13:43.387Z,100695.50
2022-09-23T07:16:11.475Z,100688.66
2022-09-23T07:18:39.204Z,100687.16
2022-09-23T07:21:16.011Z,100687.66
2022-09-23T07:23:47.915Z,100700.97
2022-09-23T07:26:16.862Z,100701.31
2022-09-23T07:28:44.065Z,100703.59
2022-09-23T07:31:27.217Z,100709.09
2022-09-23T07:34:02.412Z,100706.81
2022-09-23T07:36:32.867Z,100699.34
2022-09-23T07:39:04.007Z,100707.72
2022-09-23T07:41:32.474Z,100716.03
2022-09-23T07:44:00.716Z,100713.94
2022-09-23T07:46:31.653Z,100717.63
2022-09-23T07:49:00.537Z,100717.97
2022-09-23T07:51:36.593Z,100721.25
2022-09-23T07:54:10.317Z,100725.28
2022-09-23T07:56:38.509Z,100722.41
2022-09-23T07:59:09.124Z,100719.06
2022-09-23T08:01:41.426Z,100731.31
2022-09-23T08:04:29.811Z,100729.47
2022-09-23T08:07:03.441Z,100722.09
2022-09-23T08:09:41.578Z,100727.78
2022-09-23T08:12:16.062Z,100730.06
2022-09-23T08:14:43.358Z,100717.84
2022-09-23T08:17:12.616Z,100730.84
2022-09-23T08:19:39.453Z,100732.13
2022-09-23T08:22:06.245Z,100738.22
2022-09-23T08:24:33.296Z,100741.81
2022-09-23T08:27:00.144Z,100738.44
2022-09-23T08:29:27.063Z,100733.03
2022-09-23T08:31:54.383Z,100738.69
2022-09-23T08:34:22.910Z,100739.56
2022-09-23T08:36:50.419Z,100736.84
2022-09-23T08:39:20.379Z,100738.13
2022-09-23T08:42:14.034Z,100738.94
2022-09-23T08:44:47.961Z,100748.44
2022-09-23T08:47:28.116Z,100743.16
2022-09-23T08:50:20.954Z,100753.25
2022-09-23T08:52:59.092Z,100757.06
2022-09-23T08:55:39.171Z,100759.78
2022-09-23T08:58:28.305Z,100766.53
2022-09-23T09:01:24.953Z,100757.91
2022-09-23T09:03:55.831Z,100761.47
2022-09-23T09:06:45.596Z,100755.34
2022-09-23T09:09:33.944Z,100762.50
2022-09-23T09:12:17.829Z,100753.25
2022-09-23T09:14:53.810Z,100750.94
2022-09-23T09:17:39.914Z,100750.53
2022-09-23T09:20:29.917Z,100757.03
2022-09-23T09:23:00.746Z,100752.59
2022-09-23T09:25:49.709Z,100758.75
2022-09-23T09:28:31.236Z,100755.75
2022-09-23T09:31:02.907Z,100752.81
2022-09-23T09:33:45.046Z,100747.75
2022-09-23T09:36:40.591Z,100744.41
2022-09-23T09:39:13.492Z,100749.03
2022-09-23T09:42:00.305Z,100747.53
2022-09-23T09:44:27.263Z,100745.88
2022-09-23T09:47:17.338Z,100741.03
2022-09-23T09:49:54.075Z,100741.25
2022-09-23T09:52:29.965Z,100747.97
2022-09-23T09:55:28.001Z,100742.72
2022-09-23T09:58:05.906Z,100734.72
2022-09-23T10:00:43.156Z,100743.56
2022-09-23T10:03:13.474Z,100732.63
2022-09-23T10:05:46.302Z,100741.47
2022-09-23T10:08:22.043Z,100740.19
2022-09-23T10:11:04.229Z,100736.00
2022-09-23T10:13:32.114Z,100734.09
2022-09-23T10:16:01.682Z,100724.19
2022-09-23T10:18:49.771Z,100726.31
2022-09-23T10:21:25.498Z,100733.88
2022-09-23T10:24:01.697Z,100726.75
2022-09-23T10:27:04.615Z,100721.06
2022-09-23T10:29:40.939Z,100718.75
2022-09-23T10:32:27.541Z,100727.16
2022-09-23T10:35:14.057Z,100723.38
2022-09-23T10:37:59.866Z,100719.81
2022-09-23T10:40:49.129Z,100724.84
2022-09-23T10:44:13.590Z,100715.78
2022-09-23T10:47:02.965Z,100719.19
2022-09-23T10:49:44.847Z,100717.69
2022-09-23T10:52:49.235Z,100721.06
2022-09-23T10:55:29.547Z,100712.84
2022-09-23T10:58:24.845Z,100719.16
2022-09-23T11:01:20.463Z,100718.72
2022-09-23T11:04:02.327Z,100712.59
2022-09-23T11:07:10.645Z,100718.88
2022-09-23T11:09:52.288Z,100724.13
2022-09-23T11:12:44.369Z,100710.91
2022-09-23T11:15:32.819Z,100711.53
2022-09-23T11:18:33.622Z,100715.13
2022-09-23T11:21:42.701Z,100703.28
2022-09-23T11:24:21.408Z,100712.28
2022-09-23T11:27:20.459Z,100705.91
2022-09-23T11:29:56.532Z,100696.97
2022-09-23T11:33:14.338Z,100707.88
2022-09-23T11:35:48.668Z,100693.72
2022-09-23T11:38:26.113Z,100707.69
2022-09-23T11:41:00.904Z,100697.13
2022-09-23T11:43:34.957Z,100691.41
2022-09-23T11:46:39.281Z,100693.09
2022-09-23T11:49:30.131Z,100695.97
2022-09-23T11:52:27.633Z,100679.25
2022-09-23T11:55:04.331Z,100679.63
2022-09-23T11:57:46.968Z,100693.69
2022-09-23T12:00:26.938Z,100691.34
2022-09-23T12:03:43.115Z,100693.53
2022-09-23T12:06:23.006Z,100674.50
2022-09-23T12:09:08.274Z,100683.81
2022-09-23T12:11:49.247Z,100684.38
2022-09-23T12:14:27.749Z,100678.94
2022-09-23T12:17:28.129Z,100681.38
2022-09-23T12:20:34.891Z,100677.81
2022-09-23T12:23:22.691Z,100682.69
2022-09-23T12:26:07.930Z,100669.78
2022-09-23T12:28:45.238Z,100666.63
2022-09-23T12:31:17.186Z,100672.94
2022-09-23T12:33:54.971Z,100667.94
2022-09-23T12:36:30.308Z,100664.28
2022-09-23T12:39:15.553Z,100665.28
2022-09-23T12:41:48.007Z,100651.44
2022-09-23T12:44:29.776Z,100652.34
2022-09-23T12:47:14.638Z,100646.19
2022-09-23T12:49:43.160Z,100645.31
2022-09-23T12:52:13.527Z,100648.47
2022-09-23T12:54:43.013Z,100641.88
2022-09-23T12:57:32.192Z,100650.66
2022-09-23T13:00:14.011Z,100644.94
2022-09-23T13:03:11.435Z,100645.31
2022-09-23T13:06:11.155Z,100630.34
2022-09-23T13:08:41.607Z,100630.28
2022-09-23T13:11:23.657Z,100630.06
2022-09-23T13:13:51.816Z,100632.41
2022-09-23T13:16:26.237Z,100627.78
2022-09-23T13:19:02.669Z,100634.50
2022-09-23T13:21:45.017Z,100638.31
2022-09-23T13:24:20.676Z,100635.97
2022-09-23T13:26:51.828Z,100635.78
2022-09-23T13:29:36.484Z,100629.06
2022-09-23T13:32:06.492Z,100635.25
2022-09-23T13:34:35.242Z,100635.00
2022-09-23T13:37:22.644Z,100629.94
2022-09-23T13:39:50.791Z,100625.88
2022-09-23T13:42:27.392Z,100629.44
2022-09-23T13:44:59.173Z,100628.91
2022-09-23T13:47:29.469Z,100626.47
2022-09-23T13:49:56.793Z,100625.25
2022-09-23T13:52:32.877Z,100623.94
2022-09-23T13:55:00.054Z,100625.75
2022-09-23T13:57:31.690Z,100629.63
2022-09-23T14:00:21.129Z,100619.09
2022-09-23T14:02:47.927Z,100619.47
2022-09-23T14:05:25.352Z,100614.38
2022-09-23T14:07:54.427Z,100620.59
2022-09-23T14:10:24.303Z,100623.78
2022-09-23T14:12:52.939Z,100625.72
2022-09-23T14:15:21.458Z,100625.31
2022-09-23T14:17:52.922Z,100621.13
2022-09-23T14:20:22.369Z,100617.78
2022-09-23T14:23:20.841Z,100616.31
2022-09-23T14:25:48.604Z,100613.91
2022-09-23T14:28:25.636Z,100615.31
2022-09-23T14:30:57.796Z,100622.56
2022-09-23T14:33:40.969Z,100618.41
2022-09-23T14:36:31.601Z,100618.06
2022-09-23T14:39:09.035Z,100616.00
2022-09-23T14:41:43.995Z,100614.50
2022-09-23T14:44:28.262Z,100606.25
2022-09-23T14:46:59.906Z,100606.19
2022-09-23T14:49:27.683Z,100613.50
2022-09-23T14:51:57.974Z,100618.38
2022-09-23T14:54:40.051Z,100619.94
2022-09-23T14:57:30.182Z,100610.88
2022-09-23T15:00:20.326Z,100615.13
2022-09-23T15:03:11.649Z,100614.69
2022-09-23T15:05:46.889Z,100606.84
2022-09-23T15:08:27.317Z,100598.97
2022-09-23T15:10:54.830Z,100593.38
2022-09-23T15:13:37.335Z,100606.41
2022-09-23T15:16:05.767Z,100607.03
2022-09-23T15:18:36.426Z,100610.00
2022-09-23T15:21:11.339Z,100599.66
2022-09-23T15:23:41.628Z,100605.34
2022-09-23T15:26:39.470Z,100602.63
2022-09-23T15:29:09.923Z,100604.13
2022-09-23T15:31:37.502Z,100596.56
2022-09-23T15:34:05.644Z,100597.16
2022-09-23T15:36:33.041Z,100592.16
2022-09-23T15:39:06.246Z,100597.03
2022-09-23T15:41:35.708Z,100597.06
2022-09-23T15:44:17.958Z,100601.16
2022-09-23T15:46:50.378Z,100605.66
2022-09-23T15:49:37.299Z,100595.38
2022-09-23T15:52:06.199Z,100595.81
2022-09-23T15:54:33.946Z,100597.09
2022-09-23T15:57:01.346Z,100589.97
2022-09-23T15:59:31.094Z,100597.41
2022-09-23T16:02:02.387Z,100596.94
2022-09-23T16:04:31.481Z,100595.91
2022-09-23T16:06:59.154Z,100597.59
2022-09-23T16:09:28.358Z,100598.50
2022-09-23T16:11:55.238Z,100600.56
2022-09-23T16:14:22.513Z,100599.31
2022-09-23T16:16:49.340Z,100605.22
2022-09-23T16:19:17.827Z,100603.50
2022-09-23T16:21:44.886Z,100600.16
2022-09-23T16:24:18.000Z,100599.31
2022-09-23T16:26:46.935Z,100610.72
2022-09-23T16:29:14.231Z,100599.34
2022-09-23T16:31:41.295Z,100606.53
2022-09-23T16:34:08.663Z,100610.72
2022-09-23T16:36:40.610Z,100612.03
2022-09-23T16:39:11.360Z,100610.34
2022-09-23T16:41:38.513Z,100605.97
2022-09-23T16:44:08.430Z,100612.06
2022-09-23T16:46:35.406Z,100610.41
2022-09-23T16:49:02.395Z,100609.38
2022-09-23T16:51:33.506Z,100613.78
2022-09-23T16:54:00.283Z,100615.47
2022-09-23T16:56:29.324Z,100613.41
2022-09-23T16:58:57.224Z,100615.09
2022-09-23T17:01:46.086Z,100613.03
2022-09-23T17:04:15.337Z,100609.44
2022-09-23T17:06:51.270Z,100610.06
2022-09-23T17:09:21.110Z,100613.88
2022-09-23T17:12:11.843Z,100622.09
2022-09-23T17:14:38.622Z,100625.44
2022-09-23T17:17:06.765Z,100617.28
2022-09-23T17:19:34.628Z,100623.19
2022-09-23T17:22:01.421Z,100623.19
2022-09-23T17:24:28.181Z,100635.19
2022-09-23T17:26:55.506Z,100636.66
2022-09-23T17:29:22.378Z,100641.69
2022-09-23T17:31:49.202Z,100633.94
2022-09-23T17:34:16.545Z,100634.13
2022-09-23T17:36:43.296Z,100639.63
2022-09-23T17:39:10.138Z,100641.94
2022-09-23T17:41:39.230Z,100638.78
2022-09-23T17:44:06.085Z,100654.34
2022-09-23T17:46:32.861Z,100645.09
2022-09-23T17:48:59.649Z,100646.97
2022-09-23T17:51:27.232Z,100651.81
2022-09-23T17:53:54.079Z,100646.75
2022-09-23T17:56:25.138Z,100652.44
2022-09-23T17:58:53.693Z,100651.56
2022-09-23T18:01:23.920Z,100653.44
2022-09-23T18:04:02.100Z,100658.06
2022-09-23T18:06:32.008Z,100659.69
2022-09-23T18:09:01.709Z,100657.13
2022-09-23T18:11:37.888Z,100660.31
2022-09-23T18:14:16.059Z,100661.78
2022-09-23T18:16:45.187Z,100661.13
2022-09-23T18:19:16.217Z,100669.31
2022-09-23T18:21:50.820Z,100674.72
2022-09-23T18:24:31.764Z,100669.06
2022-09-23T18:27:00.239Z,100666.13
2022-09-23T18:29:27.262Z,100673.44
2022-09-23T18:31:54.202Z,100681.38
2022-09-23T18:34:21.257Z,100679.66
2022-09-23T18:36:48.285Z,100675.41
2022-09-23T18:39:15.184Z,100676.22
2022-09-23T18:41:42.213Z,100686.91
2022-09-23T18:44:09.796Z,100694.19
2022-09-23T18:46:36.881Z,100693.06
2022-09-23T18:49:22.281Z,100693.88
2022-09-23T18:51:55.979Z,100691.28
2022-09-23T18:54:28.168Z,100699.41
2022-09-23T18:56:56.746Z,100692.84
2022-09-23T18:59:28.040Z,100701.41
2022-09-23T19:01:55.932Z,100703.03
2022-09-23T19:04:25.462Z,100698.84
2022-09-23T19:06:53.823Z,100701.94
2022-09-23T19:09:20.666Z,100696.66
2022-09-23T19:11:52.272Z,100699.38
2022-09-23T19:14:19.655Z,100700.16
2022-09-23T19:16:49.122Z,100699.06
2022-09-23T19:19:16.158Z,100704.44
2022-09-23T19:21:42.924Z,100706.13
2022-09-23T19:24:14.525Z,100706.50
2022-09-23T19:26:42.277Z,100711.88
2022-09-23T19:29:15.445Z,100708.06
2022-09-23T19:31:43.497Z,100703.38
2022-09-23T19:34:29.284Z,100701.34
2022-09-23T19:36:57.762Z,100703.69
2022-09-23T19:39:31.588Z,100705.31
2022-09-23T19:41:59.108Z,100710.66
2022-09-23T19:44:29.058Z,100713.59
2022-09-23T19:46:57.423Z,100711.84
2022-09-23T19:49:25.647Z,100702.81
2022-09-23T19:51:56.080Z,100713.63
2022-09-23T19:54:26.217Z,100713.28
2022-09-23T19:56:53.033Z,100719.75
2022-09-23T19:59:20.277Z,100714.66
2022-09-23T20:01:48.482Z,100718.13
2022-09-23T20:04:16.861Z,100717.47
2022-09-23T20:06:43.805Z,100716.34
2022-09-23T20:09:10.659Z,100711.47
2022-09-23T20:11:37.640Z,100711.19
2022-09-23T20:14:06.122Z,100712.78
2022-09-23T20:16:35.767Z,100724.16
2022-09-23T20:19:04.465Z,100726.94
2022-09-23T20:21:31.970Z,100718.13
2022-09-23T20:23:59.196Z,100713.44
2022-09-23T20:26:44.963Z,100712.97
2022-09-23T20:29:12.087Z,100720.66
2022-09-23T20:31:41.662Z,100711.53
2022-09-23T20:34:10.900Z,100718.38
2022-09-23T20:36:41.307Z,100715.19
2022-09-23T20:39:10.281Z,100721.84
2022-09-23T20:41:39.450Z,100724.94
2022-09-23T20:44:15.062Z,100720.06
2022-09-23T20:46:48.111Z,100722.28
2022-09-23T20:49:17.537Z,100718.44
2022-09-23T20:51:44.827Z,100726.09
2022-09-23T20:54:12.374Z,100719.34
2022-09-23T20:56:39.464Z,100722.44
2022-09-23T20:59:06.288Z,100721.50
2022-09-23T21:01:35.443Z,100725.56
2022-09-23T21:04:05.016Z,100726.31
2022-09-23T21:06:31.937Z,100728.72
2022-09-23T21:08:59.405Z,100733.50
2022-09-23T21:11:26.538Z,100736.94
2022-09-23T21:13:54.804Z,100736.28
2022-09-23T21:16:23.123Z,100743.94
2022-09-23T21:18:51.756Z,100741.78
2022-09-23T21:21:19.865Z,100741.13
2022-09-23T21:23:47.779Z,100741.63
2022-09-23T21:26:20.815Z,100745.88
2022-09-23T21:28:50.534Z,100741.19
2022-09-23T21:31:23.910Z,100744.41
2022-09-23T21:34:07.308Z,100746.16
2022-09-23T21:36:39.574Z,100745.50
2022-09-23T21:39:09.324Z,100731.44
2022-09-23T21:41:37.698Z,100737.03
2022-09-23T21:44:06.896Z,100744.69
2022-09-23T21:46:34.611Z,100744.69
2022-09-23T21:49:04.077Z,100748.94
2022-09-23T21:51:42.750Z,100744.72
2022-09-23T21:54:17.070Z,100748.78
2022-09-23T21:56:44.696Z,100734.56
2022-09-23T21:59:11.829Z,100745.78
2022-09-23T22:01:43.744Z,100746.13
2022-09-23T22:04:19.119Z,100743.59
2022-09-23T22:06:48.959Z,100749.56
2022-09-23T22:09:19.906Z,100748.88
2022-09-23T22:12:05.257Z,100740.91
2022-09-23T22:14:32.517Z,100749.22
2022-09-23T22:17:02.682Z,100754.66
2022-09-23T22:19:35.926Z,100740.41
2022-09-23T22:22:13.669Z,100745.34
2022-09-23T22:24:41.935Z,100747.03
2022-09-23T22:27:14.224Z,100743.16
2022-09-23T22:29:59.948Z,100744.16
2022-09-23T22:32:41.872Z,100734.34
2022-09-23T22:35:11.552Z,100730.28
2022-09-23T22:37:39.302Z,100743.16
2022-09-23T22:40:14.610Z,100745.88
2022-09-23T22:42:42.807Z,100746.41
2022-09-23T22:45:11.193Z,100739.47
2022-09-23T22:47:40.540Z,100736.94
2022-09-23T22:50:09.679Z,100746.44
2022-09-23T22:52:37.994Z,100752.19
2022-09-23T22:55:08.109Z,100746.94
2022-09-23T22:57:36.680Z,100737.47
2022-09-23T23:00:08.380Z,100743.59
2022-09-23T23:02:35.236Z,100740.53
2022-09-23T23:05:02.736Z,100740.88
2022-09-23T23:07:29.484Z,100736.66
2022-09-23T23:09:56.264Z,100745.31
2022-09-23T23:12:23.093Z,100736.00
2022-09-23T23:14:49.911Z,100735.47
2022-09-23T23:17:18.810Z,100732.09
2022-09-23T23:19:45.669Z,100741.56
2022-09-23T23:22:12.481Z,100740.56
2022-09-23T23:24:39.262Z,100729.38
2022-09-23T23:27:06.083Z,100743.25
2022-09-23T23:29:33.014Z,100748.13
2022-09-23T23:31:59.816Z,100739.31
2022-09-23T23:34:26.641Z,100733.41
2022-09-23T23:36:57.249Z,100727.97
2022-09-23T23:39:25.362Z,100732.03
2022-09-23T23:41:57.695Z,100735.78
2022-09-23T23:44:26.950Z,100737.81
2022-09-23T23:46:55.064Z,100731.03
2022-09-23T23:49:22.006Z,100734.91
2022-09-23T23:51:48.995Z,100735.09
2022-09-23T23:54:16.032Z,100741.84
2022-09-23T23:56:43.514Z,100742.00
2022-09-23T23:59:10.382Z,100734.06
